Time;durP1;ratioP1;P1;durP2;ratioP2;P2;SDS_P1;SDS_P2;PMS_P1;PMS_P2;Temp;Humidity;BMP_temperature;BMP_pressure;BME280_temperature;BME280_humidity;BME280_pressure;Samples;Min_cycle;Max_cycle;Signal;HPM_P1;HPM_P2
2022/11/03 00:00:59;;;;;;;24.65;12.40;;;9.00;99.90;;;;;;5074631;28;20277;-74
2022/11/03 00:03:25;;;;;;;23.80;10.98;;;8.90;99.90;;;;;;5074962;28;20174;-74
2022/11/03 00:06:06;;;;;;;34.33;12.35;;;8.90;99.90;;;;;;5072780;28;20172;-74
2022/11/03 00:08:40;;;;;;;27.40;11.43;;;8.80;99.90;;;;;;5072300;28;20222;-76
2022/11/03 00:11:11;;;;;;;32.85;11.75;;;8.70;99.90;;;;;;5074878;28;20183;-74
2022/11/03 00:13:40;;;;;;;34.97;9.77;;;8.60;99.90;;;;;;5073495;28;20171;-74
2022/11/03 00:16:08;;;;;;;38.95;10.35;;;8.60;99.90;;;;;;5082855;28;20211;-74
2022/11/03 00:18:34;;;;;;;34.38;10.52;;;8.50;99.90;;;;;;5072523;28;20225;-74
2022/11/03 00:21:02;;;;;;;57.72;11.40;;;8.40;99.90;;;;;;5082656;28;20222;-74
2022/11/03 00:23:30;;;;;;;41.80;11.02;;;8.40;99.90;;;;;;5064555;28;20214;-73
2022/11/03 00:26:03;;;;;;;29.33;10.88;;;8.40;99.90;;;;;;5069378;28;20620;-73
2022/11/03 00:28:33;;;;;;;32.15;10.73;;;8.30;99.90;;;;;;5069095;28;20179;-74
2022/11/03 00:31:24;;;;;;;46.25;11.90;;;8.30;99.90;;;;;;5070253;28;20179;-74
2022/11/03 00:33:50;;;;;;;26.42;10.95;;;8.20;99.90;;;;;;5071022;28;20179;-75
2022/11/03 00:36:21;;;;;;;24.02;10.75;;;8.20;99.90;;;;;;5064502;28;20210;-75
2022/11/03 00:38:47;;;;;;;18.67;9.23;;;8.20;99.90;;;;;;5066617;28;20186;-75
2022/11/03 00:41:13;;;;;;;20.38;9.93;;;8.30;99.90;;;;;;5064479;28;20211;-75
2022/11/03 00:43:40;;;;;;;12.43;7.80;;;8.30;99.90;;;;;;5068310;28;20218;-75
2022/11/03 00:46:07;;;;;;;15.80;8.82;;;8.40;99.90;;;;;;5063324;28;20222;-75
2022/11/03 00:48:34;;;;;;;9.15;7.20;;;8.40;99.90;;;;;;5064960;28;20233;-76
2022/11/03 00:51:01;;;;;;;7.63;6.72;;;8.30;99.90;;;;;;5069473;28;20183;-75
2022/11/03 00:53:27;;;;;;;11.27;6.15;;;8.20;99.90;;;;;;5066683;28;20262;-76
2022/11/03 00:55:52;;;;;;;6.65;5.63;;;8.20;99.90;;;;;;5068990;28;20240;-76
2022/11/03 00:58:18;;;;;;;6.22;5.05;;;8.30;99.90;;;;;;5070174;28;20649;-76
2022/11/03 01:00:44;;;;;;;6.03;5.43;;;8.30;99.90;;;;;;5071783;28;20179;-76
2022/11/03 01:03:09;;;;;;;6.60;4.70;;;8.30;99.90;;;;;;5072757;28;20175;-75
2022/11/03 01:08:23;;;;;;;5.40;4.43;;;8.10;99.90;;;;;;5064300;28;20280;-75
2022/11/03 01:13:33;;;;;;;5.22;4.72;;;8.10;99.90;;;;;;5064735;28;20222;-76
2022/11/03 01:15:59;;;;;;;4.97;4.57;;;8.10;99.90;;;;;;5066874;28;20226;-76
2022/11/03 01:18:24;;;;;;;4.63;4.32;;;8.10;99.90;;;;;;5066476;28;20549;-76
2022/11/03 01:20:55;;;;;;;4.30;4.00;;;8.10;99.90;;;;;;5075926;28;20206;-75
2022/11/03 01:23:20;;;;;;;4.70;4.30;;;8.10;99.90;;;;;;5075764;28;20172;-75
2022/11/03 01:25:46;;;;;;;4.63;4.32;;;8.10;99.90;;;;;;5065641;28;20183;-76
2022/11/03 01:28:11;;;;;;;4.70;4.30;;;8.10;99.90;;;;;;5064570;28;20179;-76
2022/11/03 01:30:37;;;;;;;5.00;4.50;;;8.00;99.90;;;;;;5063909;28;20183;-76
2022/11/03 01:33:02;;;;;;;4.85;4.40;;;7.90;99.90;;;;;;5067940;28;20652;-76
2022/11/03 01:35:28;;;;;;;8.15;4.93;;;7.80;99.90;;;;;;5066491;28;20642;-76
2022/11/03 01:37:55;;;;;;;5.68;5.10;;;7.80;99.90;;;;;;5062991;28;20195;-76
2022/11/03 01:40:21;;;;;;;6.95;5.18;;;7.70;99.90;;;;;;5066887;28;20664;-76
2022/11/03 01:42:47;;;;;;;7.90;5.50;;;7.70;99.90;;;;;;5065776;28;20257;-76
2022/11/03 01:45:12;;;;;;;7.60;5.47;;;7.60;99.90;;;;;;5072957;28;20190;-76
2022/11/03 01:47:39;;;;;;;6.68;5.90;;;7.60;99.90;;;;;;5063292;28;20214;-76
2022/11/03 01:50:14;;;;;;;4.90;4.35;;;7.60;99.90;;;;;;5064202;28;20172;-77
2022/11/03 01:52:56;;;;;;;5.45;4.97;;;7.60;99.90;;;;;;5066589;28;20736;-79
2022/11/03 01:55:28;;;;;;;5.82;4.80;;;7.60;99.90;;;;;;5070384;28;20274;-76
2022/11/03 01:58:25;;;;;;;5.35;4.50;;;7.80;99.90;;;;;;5062864;28;20226;-76
2022/11/03 02:00:54;;;;;;;6.47;4.57;;;7.90;99.90;;;;;;5064434;28;20183;-76
2022/11/03 02:03:21;;;;;;;5.25;4.85;;;7.90;99.90;;;;;;5067281;28;20179;-76
2022/11/03 02:05:48;;;;;;;7.03;4.90;;;7.90;99.90;;;;;;5071257;28;20254;-75
2022/11/03 02:08:43;;;;;;;5.10;4.70;;;7.80;99.90;;;;;;5068180;28;20167;-75
2022/11/03 02:13:52;;;;;;;4.72;4.32;;;7.60;99.90;;;;;;5065525;28;20181;-75
2022/11/03 02:16:20;;;;;;;9.10;4.63;;;7.50;99.90;;;;;;5061456;28;20202;-76
2022/11/03 02:18:47;;;;;;;5.03;4.55;;;7.50;99.90;;;;;;5066333;28;20564;-76
2022/11/03 02:21:29;;;;;;;4.57;4.18;;;7.50;99.90;;;;;;5065962;28;20203;-76
2022/11/03 02:24:26;;;;;;;4.07;3.78;;;7.60;99.90;;;;;;5065209;28;20206;-75
2022/11/03 02:26:55;;;;;;;4.28;3.97;;;7.60;99.90;;;;;;5067584;28;20198;-75
2022/11/03 02:29:21;;;;;;;4.35;4.05;;;7.60;99.90;;;;;;5066683;28;20190;-76
2022/11/03 02:32:01;;;;;;;4.35;4.05;;;7.50;99.90;;;;;;5073323;28;20553;-75
2022/11/03 02:34:45;;;;;;;4.93;4.20;;;7.50;99.90;;;;;;5065682;28;20207;-76
2022/11/03 02:37:21;;;;;;;4.85;4.45;;;7.40;99.90;;;;;;5064189;28;20297;-75
2022/11/03 02:39:51;;;;;;;6.72;4.63;;;7.20;99.90;;;;;;5060329;28;20190;-75
2022/11/03 02:42:19;;;;;;;5.43;5.03;;;7.20;99.90;;;;;;5068070;28;20262;-76
2022/11/03 02:44:49;;;;;;;6.63;4.97;;;7.20;99.90;;;;;;5071234;28;20186;-76
2022/11/03 02:47:17;;;;;;;5.50;5.00;;;7.20;99.90;;;;;;5066738;28;20196;-74
2022/11/03 02:49:47;;;;;;;5.35;4.75;;;7.10;99.90;;;;;;5074773;28;20175;-73
2022/11/03 02:52:33;;;;;;;5.40;4.90;;;7.20;99.90;;;;;;5066866;28;20174;-73
2022/11/03 02:55:06;;;;;;;5.13;4.72;;;7.00;99.90;;;;;;5065235;28;20536;-74
2022/11/03 02:57:34;;;;;;;6.25;5.15;;;7.00;99.90;;;;;;5069819;28;20205;-75
2022/11/03 03:00:05;;;;;;;7.60;6.28;;;6.90;99.90;;;;;;5071454;28;20171;-74
2022/11/03 03:02:44;;;;;;;5.05;4.65;;;6.90;99.90;;;;;;5069752;28;20196;-74
2022/11/03 03:05:12;;;;;;;7.50;4.95;;;6.80;99.90;;;;;;5067297;28;20172;-75
2022/11/03 03:07:44;;;;;;;4.78;4.40;;;6.80;99.90;;;;;;5052148;28;20223;-75
2022/11/03 03:10:15;;;;;;;5.90;4.65;;;6.70;99.90;;;;;;5069080;28;20240;-75
2022/11/03 03:12:49;;;;;;;5.72;5.10;;;6.70;99.90;;;;;;5067919;28;20187;-76
2022/11/03 03:15:17;;;;;;;7.03;5.45;;;6.60;99.90;;;;;;5063407;28;20206;-76
2022/11/03 03:18:04;;;;;;;5.95;4.47;;;6.70;99.90;;;;;;5067442;28;20195;-76
2022/11/03 03:20:45;;;;;;;4.65;4.25;;;6.60;99.90;;;;;;5064717;28;20179;-75
2022/11/03 03:23:30;;;;;;;5.50;5.00;;;6.70;99.90;;;;;;5063200;28;20191;-75
2022/11/03 03:26:11;;;;;;;4.82;4.43;;;6.80;99.90;;;;;;5058333;28;20274;-76
2022/11/03 03:28:46;;;;;;;5.80;5.30;;;6.90;99.90;;;;;;5063281;28;20176;-75
2022/11/03 03:31:15;;;;;;;5.10;4.60;;;6.90;99.90;;;;;;5065435;28;20661;-75
2022/11/03 03:33:43;;;;;;;6.95;5.07;;;6.80;99.90;;;;;;5062945;28;20187;-75
2022/11/03 03:36:14;;;;;;;6.90;4.85;;;6.90;99.90;;;;;;5059333;28;20214;-75
2022/11/03 03:38:53;;;;;;;4.35;3.95;;;6.90;99.90;;;;;;5062307;28;20276;-75
2022/11/03 03:41:21;;;;;;;5.00;4.60;;;6.90;99.90;;;;;;5063693;28;20619;-75
2022/11/03 03:43:53;;;;;;;4.72;4.43;;;7.00;99.90;;;;;;5066459;28;20226;-75
2022/11/03 03:46:21;;;;;;;4.45;4.15;;;6.90;99.90;;;;;;5059705;28;20306;-75
2022/11/03 03:48:46;;;;;;;6.35;5.40;;;6.90;99.90;;;;;;5062526;28;20182;-76
2022/11/03 03:51:14;;;;;;;5.60;5.05;;;6.90;99.90;;;;;;5064200;28;20171;-75
2022/11/03 03:53:39;;;;;;;5.65;5.15;;;6.80;99.90;;;;;;5060363;28;20545;-75
2022/11/03 03:56:05;;;;;;;5.63;5.13;;;6.60;99.90;;;;;;5062294;28;20213;-75
2022/11/03 03:58:31;;;;;;;6.00;5.10;;;6.70;99.90;;;;;;5062879;28;20244;-75
2022/11/03 04:00:56;;;;;;;5.60;5.10;;;6.80;99.90;;;;;;5063709;28;20619;-75
2022/11/03 04:03:24;;;;;;;7.75;5.47;;;6.80;99.90;;;;;;5060004;28;20175;-75
2022/11/03 04:05:52;;;;;;;6.97;5.90;;;6.80;99.90;;;;;;5073567;28;20171;-75
2022/11/03 04:08:18;;;;;;;6.18;5.40;;;6.90;99.90;;;;;;5066618;28;20179;-76
2022/11/03 04:22:15;;;;;;;6.97;6.10;;;6.90;99.90;;;;;;5061281;28;20183;-75
2022/11/03 04:24:27;;;;;;;8.60;5.32;;;6.90;99.90;;;;;;5067654;28;20182;-76
2022/11/03 04:26:56;;;;;;;12.43;6.80;;;6.90;99.90;;;;;;5060358;28;20204;-75
2022/11/03 04:29:22;;;;;;;14.50;5.57;;;6.90;99.90;;;;;;5067982;28;20187;-75
2022/11/03 04:31:47;;;;;;;11.50;5.40;;;6.70;99.90;;;;;;5067276;28;20194;-75
2022/11/03 04:34:13;;;;;;;11.73;6.00;;;6.70;99.90;;;;;;5062356;28;20218;-75
2022/11/03 04:36:38;;;;;;;8.00;6.47;;;6.60;99.90;;;;;;5046758;28;20573;-75
2022/11/03 04:39:18;;;;;;;13.98;6.47;;;6.60;99.90;;;;;;5062532;28;20187;-75
2022/11/03 04:41:45;;;;;;;9.98;6.07;;;6.60;99.90;;;;;;5069867;28;20733;-75
2022/11/03 04:44:14;;;;;;;10.45;5.63;;;6.60;99.90;;;;;;5066424;28;20727;-75
2022/11/03 04:46:40;;;;;;;14.45;5.57;;;6.50;99.90;;;;;;5068602;28;20195;-75
2022/11/03 04:49:13;;;;;;;17.73;5.85;;;6.40;99.90;;;;;;5066344;28;20180;-75
2022/11/03 04:51:40;;;;;;;13.10;4.93;;;6.30;99.90;;;;;;5066675;28;20656;-75
2022/11/03 04:54:17;;;;;;;21.90;5.70;;;6.20;99.90;;;;;;5068473;28;20539;-75
2022/11/03 04:56:42;;;;;;;10.15;5.38;;;6.30;99.90;;;;;;5065747;28;20288;-76
2022/11/03 04:59:31;;;;;;;14.73;5.28;;;6.40;99.90;;;;;;5066683;28;20207;-75
2022/11/03 05:01:58;;;;;;;9.57;5.22;;;6.50;99.90;;;;;;5069240;28;20203;-75
2022/11/03 05:04:24;;;;;;;10.15;4.88;;;6.30;99.90;;;;;;5068298;28;20635;-75
2022/11/03 05:06:51;;;;;;;16.13;5.65;;;6.20;99.90;;;;;;5064971;28;20195;-75
2022/11/03 05:09:24;;;;;;;12.45;4.90;;;6.30;99.90;;;;;;5067211;28;20258;-75
2022/11/03 05:11:50;;;;;;;9.30;4.90;;;6.40;99.90;;;;;;5068058;28;20787;-75
2022/11/03 05:14:30;;;;;;;5.65;4.90;;;6.40;99.90;;;;;;5069467;28;20194;-75
2022/11/03 05:16:57;;;;;;;5.43;4.80;;;6.50;99.90;;;;;;5062147;28;20279;-75
2022/11/03 05:19:27;;;;;;;6.95;4.65;;;6.40;99.90;;;;;;5062402;28;20534;-75
2022/11/03 05:21:55;;;;;;;9.23;4.53;;;6.40;99.90;;;;;;5066119;28;20207;-75
2022/11/03 05:24:24;;;;;;;8.82;5.07;;;6.30;99.90;;;;;;5065814;28;20181;-74
2022/11/03 05:26:51;;;;;;;8.18;4.68;;;6.30;99.90;;;;;;5060487;28;20290;-75
2022/11/03 05:29:34;;;;;;;5.82;4.90;;;6.20;99.90;;;;;;5067512;28;20210;-74
2022/11/03 05:32:00;;;;;;;5.30;4.70;;;6.10;99.90;;;;;;5072035;28;20167;-75
2022/11/03 05:34:29;;;;;;;7.13;5.18;;;6.10;99.90;;;;;;5068104;28;20262;-75
2022/11/03 05:36:59;;;;;;;13.07;4.70;;;6.20;99.90;;;;;;5069717;28;20191;-75
2022/11/03 05:39:34;;;;;;;10.13;4.68;;;6.20;99.90;;;;;;5069119;28;20191;-75
2022/11/03 05:42:01;;;;;;;10.70;4.80;;;6.20;99.90;;;;;;5062104;28;20210;-75
2022/11/03 05:44:35;;;;;;;10.20;4.97;;;6.20;99.90;;;;;;5065485;28;20179;-75
2022/11/03 05:47:02;;;;;;;13.82;4.85;;;6.00;99.90;;;;;;5067353;28;20194;-75
2022/11/03 05:49:28;;;;;;;6.43;4.60;;;6.10;99.90;;;;;;5066242;28;20199;-75
2022/11/03 05:51:54;;;;;;;4.53;4.13;;;6.10;99.90;;;;;;5066808;28;20183;-75
2022/11/03 05:54:27;;;;;;;12.55;4.60;;;6.20;99.90;;;;;;5064547;28;20541;-74
2022/11/03 05:56:53;;;;;;;5.22;4.22;;;6.10;99.90;;;;;;5068088;28;20226;-74
2022/11/03 05:59:23;;;;;;;5.97;5.20;;;6.10;99.90;;;;;;5065929;28;20183;-76
2022/11/03 06:01:51;;;;;;;8.93;4.72;;;6.10;99.90;;;;;;5061871;28;20231;-75
2022/11/03 06:04:22;;;;;;;5.30;4.80;;;6.10;99.90;;;;;;5062846;28;20218;-75
2022/11/03 06:07:10;;;;;;;4.97;4.57;;;6.20;99.90;;;;;;5061698;28;20191;-75
2022/11/03 06:09:36;;;;;;;8.10;4.65;;;6.20;99.90;;;;;;5067301;28;20182;-75
2022/11/03 06:12:05;;;;;;;7.15;4.57;;;6.20;99.90;;;;;;5062293;28;20179;-76
2022/11/03 06:14:32;;;;;;;5.10;4.20;;;6.20;99.90;;;;;;5065603;28;20282;-76
2022/11/03 06:17:04;;;;;;;4.90;4.05;;;6.20;99.90;;;;;;5068242;28;20198;-75
2022/11/03 06:19:43;;;;;;;6.68;4.00;;;6.30;99.90;;;;;;5072473;28;20236;-76
2022/11/03 06:22:27;;;;;;;4.65;4.25;;;6.30;99.90;;;;;;5063113;28;20211;-76
2022/11/03 06:25:26;;;;;;;4.25;3.75;;;6.20;99.90;;;;;;5062958;28;20210;-76
2022/11/03 06:27:53;;;;;;;4.95;4.45;;;6.20;99.90;;;;;;5064490;28;20274;-75
2022/11/03 06:30:24;;;;;;;5.78;4.30;;;6.30;99.90;;;;;;5065063;28;20183;-75
2022/11/03 06:32:50;;;;;;;4.88;4.43;;;6.40;99.90;;;;;;5065882;28;20172;-77
2022/11/03 06:35:17;;;;;;;4.70;4.20;;;6.40;99.90;;;;;;5071386;28;20255;-76
2022/11/03 06:37:43;;;;;;;4.15;3.78;;;6.40;99.90;;;;;;5074546;28;20229;-75
2022/11/03 06:40:09;;;;;;;6.32;4.07;;;6.50;99.90;;;;;;5065109;28;20184;-76
2022/11/03 06:42:36;;;;;;;4.40;4.05;;;6.60;99.90;;;;;;5073221;28;20697;-76
2022/11/03 06:45:13;;;;;;;4.55;4.25;;;6.70;99.90;;;;;;5063959;28;20199;-75
2022/11/03 06:47:40;;;;;;;4.85;4.45;;;6.60;99.90;;;;;;5062600;28;20216;-75
2022/11/03 06:50:30;;;;;;;3.42;3.22;;;6.70;99.90;;;;;;5073194;28;20179;-76
2022/11/03 06:52:57;;;;;;;5.57;3.90;;;6.90;99.90;;;;;;5066235;28;20202;-76
2022/11/03 06:55:29;;;;;;;5.88;4.65;;;6.90;99.90;;;;;;5062485;28;20263;-76
2022/11/03 06:58:06;;;;;;;4.15;3.85;;;7.10;99.90;;;;;;5062981;28;20209;-75
2022/11/03 07:00:36;;;;;;;4.90;3.90;;;7.20;99.90;;;;;;5068884;28;20259;-76
2022/11/03 07:03:06;;;;;;;4.30;3.72;;;7.20;99.90;;;;;;5064346;28;20204;-76
2022/11/03 07:05:32;;;;;;;4.07;3.67;;;7.10;99.90;;;;;;5063681;28;20601;-76
2022/11/03 07:08:02;;;;;;;3.85;3.55;;;7.10;99.90;;;;;;5061151;28;20215;-75
2022/11/03 07:10:31;;;;;;;4.25;3.85;;;7.20;99.90;;;;;;5067277;28;20630;-75
2022/11/03 07:13:03;;;;;;;3.45;3.22;;;7.20;99.90;;;;;;5066408;28;20183;-75
2022/11/03 07:15:37;;;;;;;6.15;3.88;;;7.20;99.90;;;;;;5072675;28;20188;-75
2022/11/03 07:18:10;;;;;;;4.57;3.53;;;7.30;99.90;;;;;;5068396;28;20233;-75
2022/11/03 07:20:38;;;;;;;4.18;3.78;;;7.30;99.90;;;;;;5064189;28;20179;-75
2022/11/03 07:23:04;;;;;;;4.13;3.83;;;7.50;99.90;;;;;;5071370;28;20199;-75
2022/11/03 07:25:30;;;;;;;4.03;3.72;;;7.40;99.90;;;;;;5073791;28;20181;-76
2022/11/03 07:27:56;;;;;;;3.75;3.55;;;7.40;99.90;;;;;;5064120;28;20200;-76
2022/11/03 07:30:28;;;;;;;4.88;4.05;;;7.40;99.90;;;;;;5061237;28;20179;-77
2022/11/03 07:32:59;;;;;;;5.00;4.30;;;7.50;99.90;;;;;;5065813;28;20179;-76
2022/11/03 07:35:30;;;;;;;4.50;4.20;;;7.70;99.90;;;;;;5068344;28;20190;-75
2022/11/03 07:37:59;;;;;;;3.85;3.58;;;7.70;99.90;;;;;;5068348;28;20195;-77
2022/11/03 07:40:26;;;;;;;4.97;3.83;;;7.80;99.90;;;;;;5071328;28;20763;-82
2022/11/03 07:42:57;;;;;;;3.72;3.47;;;7.80;99.90;;;;;;5066063;28;20356;-77
2022/11/03 07:45:38;;;;;;;3.85;3.55;;;7.80;99.90;;;;;;5064175;28;20219;-76
2022/11/03 07:48:18;;;;;;;3.97;3.78;;;8.00;99.90;;;;;;5072695;28;20168;-78
2022/11/03 07:50:45;;;;;;;4.10;3.88;;;8.20;99.90;;;;;;5067014;28;20172;-77
2022/11/03 07:53:23;;;;;;;4.80;4.40;;;8.40;99.90;;;;;;5070912;28;20259;-79
2022/11/03 07:55:51;;;;;;;5.07;4.13;;;8.50;99.90;;;;;;5068425;28;20175;-78
2022/11/03 07:58:23;;;;;;;3.97;3.67;;;8.50;99.90;;;;;;5072866;28;20237;-77
2022/11/03 08:00:52;;;;;;;4.60;3.63;;;8.60;99.90;;;;;;5066639;28;20599;-77
2022/11/03 08:03:27;;;;;;;4.95;3.83;;;8.60;99.90;;;;;;5072771;28;20184;-77
2022/11/03 08:05:52;;;;;;;4.07;3.78;;;8.50;99.90;;;;;;5066965;28;20614;-76
2022/11/03 08:08:18;;;;;;;4.00;3.70;;;8.50;99.90;;;;;;5070558;28;20424;-76
2022/11/03 08:10:44;;;;;;;4.05;3.75;;;8.70;99.90;;;;;;5069073;28;20199;-76
2022/11/03 08:13:09;;;;;;;3.65;3.45;;;8.80;99.90;;;;;;5081369;28;20803;-77
2022/11/03 08:15:35;;;;;;;3.65;3.45;;;8.90;99.90;;;;;;5073948;28;20180;-77
2022/11/03 08:18:00;;;;;;;3.55;3.35;;;8.90;99.90;;;;;;5080148;28;20183;-78
2022/11/03 08:20:26;;;;;;;3.20;3.00;;;9.00;99.90;;;;;;5073428;28;20217;-77
2022/11/03 08:22:51;;;;;;;3.97;3.58;;;9.10;99.90;;;;;;5079151;28;20564;-76
2022/11/03 08:25:17;;;;;;;4.40;4.00;;;9.40;99.90;;;;;;5080260;28;20192;-78
2022/11/03 08:27:43;;;;;;;3.95;3.75;;;9.60;99.90;;;;;;5069175;28;20729;-77
2022/11/03 08:30:09;;;;;;;3.85;3.55;;;9.80;99.90;;;;;;5072855;28;20215;-78
2022/11/03 08:32:34;;;;;;;4.13;3.83;;;9.70;99.90;;;;;;5079672;28;20172;-77
2022/11/03 08:35:00;;;;;;;4.10;3.70;;;10.00;99.90;;;;;;5073405;28;20207;-78
2022/11/03 08:37:25;;;;;;;3.88;3.58;;;10.20;99.90;;;;;;5065054;28;20199;-78
2022/11/03 08:39:51;;;;;;;4.65;4.18;;;10.50;99.90;;;;;;5072233;28;20203;-77
2022/11/03 08:42:24;;;;;;;4.55;4.25;;;10.70;99.90;;;;;;5079564;28;20255;-77
2022/11/03 08:45:15;;;;;;;5.03;4.63;;;10.80;99.90;;;;;;5078317;28;20187;-81
2022/11/03 08:48:38;;;;;;;4.32;3.90;;;10.90;99.90;;;;;;5074868;28;20246;-76
2022/11/03 08:51:04;;;;;;;4.50;4.18;;;11.00;99.90;;;;;;5064036;28;20452;-76
2022/11/03 08:53:30;;;;;;;4.93;4.45;;;11.30;99.90;;;;;;5066440;28;20274;-77
2022/11/03 08:59:43;;;;;;;4.55;4.15;;;11.40;99.90;;;;;;5090542;28;20202;-77
2022/11/03 09:03:00;;;;;;;4.55;4.20;;;12.00;99.90;;;;;;5075999;28;20202;-78
2022/11/03 09:05:28;;;;;;;6.75;3.97;;;12.90;99.90;;;;;;5057818;28;20213;-78
2022/11/03 09:07:54;;;;;;;5.88;3.97;;;14.70;99.90;;;;;;5054700;28;20200;-78
2022/11/03 09:10:23;;;;;;;4.10;3.80;;;15.80;99.90;;;;;;5077606;28;20271;-77
2022/11/03 09:12:56;;;;;;;4.18;3.92;;;17.60;99.90;;;;;;5080030;28;20711;-79
2022/11/03 09:15:21;;;;;;;4.05;3.72;;;19.30;98.80;;;;;;5076745;28;20183;-78
2022/11/03 09:17:47;;;;;;;4.47;3.67;;;20.30;93.40;;;;;;5080057;28;20198;-78
2022/11/03 09:20:13;;;;;;;4.30;3.92;;;20.30;91.10;;;;;;5080944;28;20176;-77
2022/11/03 09:22:39;;;;;;;3.95;3.60;;;19.60;90.50;;;;;;5083705;28;20210;-78
2022/11/03 09:25:05;;;;;;;5.15;4.32;;;18.80;91.20;;;;;;5065651;28;20236;-78
2022/11/03 09:27:31;;;;;;;5.75;4.60;;;18.00;92.20;;;;;;5071651;28;20191;-78
2022/11/03 09:29:57;;;;;;;4.90;4.40;;;17.50;93.50;;;;;;5064466;28;20176;-77
2022/11/03 09:32:23;;;;;;;6.38;4.55;;;17.90;93.90;;;;;;5072853;28;20175;-77
2022/11/03 09:34:49;;;;;;;5.35;4.25;;;19.10;92.00;;;;;;5068560;28;20179;-77
2022/11/03 09:37:15;;;;;;;5.32;4.18;;;20.30;88.80;;;;;;5062405;28;20574;-77
2022/11/03 09:39:42;;;;;;;4.13;3.67;;;21.60;83.50;;;;;;5065389;28;20188;-77
2022/11/03 09:42:10;;;;;;;5.80;4.45;;;22.70;79.10;;;;;;5069408;28;20199;-77
2022/11/03 09:44:36;;;;;;;4.78;4.40;;;23.40;74.40;;;;;;5064916;28;20226;-79
2022/11/03 09:47:03;;;;;;;5.47;4.82;;;23.90;71.40;;;;;;5067924;28;20612;-79
2022/11/03 09:49:31;;;;;;;6.60;4.22;;;24.30;69.60;;;;;;5064402;28;20179;-79
2022/11/03 09:51:58;;;;;;;6.50;4.63;;;24.50;67.60;;;;;;5066909;28;20232;-79
2022/11/03 09:54:25;;;;;;;5.97;4.20;;;25.00;66.20;;;;;;5068370;28;20583;-79
2022/11/03 09:56:51;;;;;;;5.85;4.13;;;25.30;64.40;;;;;;5070794;28;20241;-79
2022/11/03 09:59:19;;;;;;;6.13;4.75;;;25.90;62.10;;;;;;5066687;28;20226;-79
2022/11/03 10:01:48;;;;;;;6.07;4.07;;;26.10;61.10;;;;;;5064280;28;20187;-79
2022/11/03 10:04:25;;;;;;;7.75;4.60;;;26.50;60.40;;;;;;5063356;28;20236;-80
2022/11/03 10:06:51;;;;;;;5.60;4.10;;;27.00;58.90;;;;;;5060728;28;20206;-79
2022/11/03 10:09:19;;;;;;;4.40;3.85;;;27.60;57.10;;;;;;5066427;28;20175;-79
2022/11/03 10:11:46;;;;;;;4.88;4.15;;;27.90;56.40;;;;;;5067135;28;20178;-79
2022/11/03 10:14:14;;;;;;;4.63;4.22;;;27.60;56.10;;;;;;5061272;28;20259;-79
2022/11/03 10:16:41;;;;;;;6.75;4.63;;;27.50;55.90;;;;;;5066384;28;20224;-79
2022/11/03 10:19:13;;;;;;;5.13;4.63;;;27.70;55.30;;;;;;5061957;28;20263;-79
2022/11/03 10:21:41;;;;;;;4.90;4.38;;;27.90;55.40;;;;;;5065594;28;20294;-79
2022/11/03 10:24:11;;;;;;;4.13;3.83;;;28.70;53.90;;;;;;5063774;28;20178;-78
2022/11/03 10:26:45;;;;;;;4.72;4.35;;;29.00;53.90;;;;;;5074659;28;20678;-76
2022/11/03 10:29:20;;;;;;;7.82;4.82;;;29.00;53.30;;;;;;5064475;28;20196;-75
2022/11/03 10:31:49;;;;;;;6.70;4.97;;;29.00;53.60;;;;;;5069638;28;20257;-75
2022/11/03 10:34:33;;;;;;;5.30;4.20;;;29.40;53.20;;;;;;5063934;28;20549;-75
2022/11/03 10:37:24;;;;;;;6.03;4.75;;;29.10;52.80;;;;;;5061533;28;20206;-75
2022/11/03 10:39:57;;;;;;;4.78;4.35;;;28.90;53.50;;;;;;5067648;28;20230;-76
2022/11/03 10:42:31;;;;;;;5.72;4.65;;;29.00;53.50;;;;;;5062458;28;20551;-77
2022/11/03 10:45:18;;;;;;;6.70;4.18;;;29.00;53.10;;;;;;5063095;28;20187;-76
2022/11/03 10:47:43;;;;;;;9.02;5.20;;;29.20;52.40;;;;;;5058253;28;20681;-75
2022/11/03 10:50:24;;;;;;;7.50;4.28;;;29.30;52.50;;;;;;5059736;28;20253;-75
2022/11/03 10:52:50;;;;;;;4.38;3.97;;;29.60;52.00;;;;;;5063119;28;20171;-77
2022/11/03 10:55:17;;;;;;;3.95;3.65;;;29.80;51.50;;;;;;5064340;28;20179;-77
2022/11/03 10:57:43;;;;;;;6.13;3.88;;;29.50;51.90;;;;;;5060766;28;20685;-78
2022/11/03 11:00:16;;;;;;;5.13;3.70;;;29.60;52.30;;;;;;5063803;28;20585;-78
2022/11/03 11:02:44;;;;;;;3.17;2.92;;;30.30;50.80;;;;;;5069059;28;20203;-78
2022/11/03 11:05:22;;;;;;;6.47;3.53;;;30.20;51.00;;;;;;5061587;28;20183;-76
2022/11/03 11:07:52;;;;;;;4.47;3.55;;;29.60;51.90;;;;;;5056887;28;20202;-77
2022/11/03 11:10:26;;;;;;;3.08;2.25;;;29.20;52.30;;;;;;5055364;28;20206;-77
2022/11/03 11:13:17;;;;;;;2.35;2.08;;;29.20;52.30;;;;;;5070146;28;20607;-77
2022/11/03 11:15:57;;;;;;;3.50;2.88;;;29.60;51.90;;;;;;5072894;28;20186;-77
2022/11/03 11:18:29;;;;;;;2.60;2.40;;;29.10;52.40;;;;;;5066369;28;20175;-76
2022/11/03 11:21:23;;;;;;;2.65;2.42;;;28.90;52.40;;;;;;5067835;28;20179;-77
2022/11/03 11:23:51;;;;;;;2.78;2.08;;;29.40;52.30;;;;;;5070173;28;20669;-77
2022/11/03 11:26:16;;;;;;;4.97;2.72;;;30.00;51.20;;;;;;5069693;28;20784;-78
2022/11/03 11:29:05;;;;;;;3.08;2.25;;;30.20;51.40;;;;;;5068138;28;20175;-77
2022/11/03 11:31:31;;;;;;;2.45;2.22;;;30.70;50.90;;;;;;5063442;28;20197;-76
2022/11/03 11:34:24;;;;;;;2.60;2.40;;;31.40;50.10;;;;;;5072723;28;20528;-77
2022/11/03 11:36:53;;;;;;;2.47;2.28;;;30.90;49.90;;;;;;5062504;28;20214;-77
2022/11/03 11:39:19;;;;;;;2.55;2.35;;;31.40;49.20;;;;;;5064210;28;20279;-77
2022/11/03 11:42:03;;;;;;;2.60;2.40;;;31.60;49.00;;;;;;5070588;28;20697;-77
2022/11/03 11:44:44;;;;;;;2.33;2.22;;;30.90;50.00;;;;;;5071785;28;20186;-78
2022/11/03 11:47:37;;;;;;;3.30;2.50;;;30.90;50.00;;;;;;5060659;28;20226;-78
2022/11/03 11:50:06;;;;;;;2.67;2.40;;;31.00;50.00;;;;;;5072285;28;20250;-77
2022/11/03 11:52:51;;;;;;;2.63;2.38;;;31.50;49.40;;;;;;5065721;28;20178;-77
2022/11/03 11:55:31;;;;;;;2.72;2.50;;;31.60;48.90;;;;;;5067161;28;20534;-78
2022/11/03 11:57:59;;;;;;;3.65;2.90;;;31.60;49.20;;;;;;5065468;28;20264;-78
2022/11/03 12:00:30;;;;;;;4.97;2.72;;;31.70;49.10;;;;;;5069802;28;20554;-78
2022/11/03 12:02:57;;;;;;;2.47;2.28;;;31.70;49.30;;;;;;5069382;28;20201;-78
2022/11/03 12:05:26;;;;;;;2.42;2.28;;;32.00;49.30;;;;;;5067948;28;20214;-78
2022/11/03 12:07:52;;;;;;;2.83;2.60;;;31.80;49.40;;;;;;5067134;28;20191;-78
2022/11/03 12:10:27;;;;;;;2.63;2.40;;;32.10;49.20;;;;;;5067971;28;20218;-77
2022/11/03 12:12:54;;;;;;;3.13;2.80;;;31.70;48.90;;;;;;5067424;28;20181;-77
2022/11/03 12:15:49;;;;;;;2.55;2.00;;;30.70;50.00;;;;;;5066973;28;20179;-77
2022/11/03 12:18:31;;;;;;;3.15;2.63;;;29.80;50.90;;;;;;5074465;28;20224;-78
2022/11/03 12:20:56;;;;;;;3.35;2.97;;;28.50;53.00;;;;;;5082525;28;20171;-76
2022/11/03 12:23:37;;;;;;;4.78;3.28;;;27.70;54.40;;;;;;5076139;28;20701;-77
2022/11/03 12:26:04;;;;;;;3.40;3.08;;;27.00;55.70;;;;;;5065847;28;20249;-78
2022/11/03 12:28:32;;;;;;;3.17;2.95;;;26.20;57.00;;;;;;5063734;28;20229;-77
2022/11/03 12:30:57;;;;;;;3.25;2.88;;;25.10;59.60;;;;;;5065014;28;20195;-77
2022/11/03 12:33:23;;;;;;;3.65;3.35;;;24.50;60.90;;;;;;5062891;28;20223;-80
2022/11/03 12:35:49;;;;;;;4.45;3.03;;;24.20;61.40;;;;;;5072250;28;20221;-80
2022/11/03 12:38:15;;;;;;;4.05;2.92;;;23.60;63.20;;;;;;5068327;28;20180;-80
2022/11/03 12:40:41;;;;;;;3.78;2.78;;;23.60;64.00;;;;;;5074587;28;20629;-79
2022/11/03 12:43:06;;;;;;;2.83;2.60;;;23.80;64.10;;;;;;5069620;28;20206;-80
2022/11/03 12:45:32;;;;;;;3.92;2.85;;;23.90;64.30;;;;;;5064392;28;20249;-80
2022/11/03 12:47:57;;;;;;;3.00;2.78;;;23.90;64.50;;;;;;5062006;28;20199;-80
2022/11/03 12:50:23;;;;;;;3.08;2.60;;;23.90;65.10;;;;;;5061417;28;20549;-80
2022/11/03 12:52:48;;;;;;;3.38;2.80;;;23.80;64.90;;;;;;5073385;28;20172;-80
2022/11/03 12:55:14;;;;;;;3.38;2.70;;;23.60;65.30;;;;;;5061204;28;20228;-80
2022/11/03 12:57:40;;;;;;;3.50;2.97;;;23.20;66.70;;;;;;5061896;28;20202;-79
2022/11/03 13:00:06;;;;;;;5.35;3.00;;;22.80;67.50;;;;;;5066816;28;20183;-77
2022/11/03 13:02:33;;;;;;;3.40;3.00;;;22.40;68.80;;;;;;5065993;28;20203;-80
2022/11/03 13:04:58;;;;;;;4.60;3.22;;;22.00;69.20;;;;;;5071189;28;20171;-79
2022/11/03 13:07:24;;;;;;;5.15;3.00;;;21.50;72.10;;;;;;5064292;28;20195;-80
2022/11/03 13:09:50;;;;;;;3.17;2.88;;;21.20;73.10;;;;;;5065177;28;20197;-78
2022/11/03 13:12:30;;;;;;;3.20;2.92;;;20.90;73.50;;;;;;5075627;28;20194;-80
2022/11/03 13:15:01;;;;;;;4.05;2.70;;;20.60;74.70;;;;;;5076321;28;20602;-76
2022/11/03 13:17:27;;;;;;;5.15;3.00;;;20.60;75.50;;;;;;5068366;28;20685;-77
2022/11/03 13:19:53;;;;;;;3.17;2.85;;;20.50;76.40;;;;;;5071049;28;20264;-78
2022/11/03 13:22:19;;;;;;;4.10;2.78;;;20.30;76.90;;;;;;5064608;28;20215;-77
2022/11/03 13:24:45;;;;;;;4.32;3.17;;;20.10;77.30;;;;;;5066857;28;20645;-77
2022/11/03 13:27:10;;;;;;;3.67;3.05;;;19.70;79.20;;;;;;5067409;28;20195;-78
2022/11/03 13:29:36;;;;;;;5.95;3.47;;;19.40;80.40;;;;;;5066061;28;20258;-76
2022/11/03 13:32:03;;;;;;;5.03;3.38;;;19.20;81.30;;;;;;5064451;28;20183;-75